sensor_id;sensor_type;location;lat;lon;timestamp;pressure;altitude;pressure_sealevel;temperature;humidity
53246;BME280;39569;51.090;-1.786;2022-10-22T00:00:35;99592.41;;;28.30;41.34
53246;BME280;39569;51.090;-1.786;2022-10-22T00:03:03;99598.72;;;28.30;41.49
53246;BME280;39569;51.090;-1.786;2022-10-22T00:05:30;99614.72;;;28.37;40.92
53246;BME280;39569;51.090;-1.786;2022-10-22T00:07:57;99614.34;;;28.69;40.33
53246;BME280;39569;51.090;-1.786;2022-10-22T00:10:24;99617.00;;;27.95;41.37
53246;BME280;39569;51.090;-1.786;2022-10-22T00:12:50;99625.38;;;26.61;44.80
53246;BME280;39569;51.090;-1.786;2022-10-22T00:15:17;99629.41;;;27.71;42.27
53246;BME280;39569;51.090;-1.786;2022-10-22T00:17:44;99631.63;;;27.91;42.37
53246;BME280;39569;51.090;-1.786;2022-10-22T00:20:12;99642.91;;;26.87;44.63
53246;BME280;39569;51.090;-1.786;2022-10-22T00:22:39;99637.44;;;27.89;42.45
53246;BME280;39569;51.090;-1.786;2022-10-22T00:25:07;99640.56;;;28.75;40.09
53246;BME280;39569;51.090;-1.786;2022-10-22T00:27:34;99640.78;;;29.04;39.33
53246;BME280;39569;51.090;-1.786;2022-10-22T00:30:00;99650.19;;;27.28;43.20
53246;BME280;39569;51.090;-1.786;2022-10-22T00:32:27;99660.47;;;27.36;43.06
53246;BME280;39569;51.090;-1.786;2022-10-22T00:34:54;99663.56;;;28.09;41.45
53246;BME280;39569;51.090;-1.786;2022-10-22T00:37:22;99656.59;;;27.37;42.60
53246;BME280;39569;51.090;-1.786;2022-10-22T00:39:49;99656.09;;;27.35;42.57
53246;BME280;39569;51.090;-1.786;2022-10-22T00:42:19;99659.50;;;28.37;40.89
53246;BME280;39569;51.090;-1.786;2022-10-22T00:45:15;99666.38;;;28.18;39.82
53246;BME280;39569;51.090;-1.786;2022-10-22T00:47:45;99677.94;;;27.62;41.21
53246;BME280;39569;51.090;-1.786;2022-10-22T00:50:16;99678.88;;;28.32;40.14
53246;BME280;39569;51.090;-1.786;2022-10-22T00:52:46;99672.63;;;28.88;39.04
53246;BME280;39569;51.090;-1.786;2022-10-22T00:55:14;99678.66;;;28.20;40.13
53246;BME280;39569;51.090;-1.786;2022-10-22T00:57:41;99683.28;;;28.11;40.75
53246;BME280;39569;51.090;-1.786;2022-10-22T01:00:10;99682.38;;;28.55;39.46
53246;BME280;39569;51.090;-1.786;2022-10-22T01:02:36;99693.47;;;27.31;42.31
53246;BME280;39569;51.090;-1.786;2022-10-22T01:05:04;99702.84;;;27.65;40.89
53246;BME280;39569;51.090;-1.786;2022-10-22T01:07:33;99701.97;;;26.53;43.71
53246;BME280;39569;51.090;-1.786;2022-10-22T01:10:09;99713.97;;;28.04;40.47
53246;BME280;39569;51.090;-1.786;2022-10-22T01:12:44;99711.47;;;27.59;41.49
53246;BME280;39569;51.090;-1.786;2022-10-22T01:15:18;99709.97;;;28.80;38.55
53246;BME280;39569;51.090;-1.786;2022-10-22T01:17:54;99721.53;;;28.38;39.36
53246;BME280;39569;51.090;-1.786;2022-10-22T01:20:50;99733.44;;;27.81;40.69
53246;BME280;39569;51.090;-1.786;2022-10-22T01:23:32;99733.13;;;28.88;38.25
53246;BME280;39569;51.090;-1.786;2022-10-22T01:26:12;99743.69;;;27.67;40.85
53246;BME280;39569;51.090;-1.786;2022-10-22T01:28:51;99744.16;;;27.47;41.17
53246;BME280;39569;51.090;-1.786;2022-10-22T01:31:21;99749.91;;;27.81;40.72
53246;BME280;39569;51.090;-1.786;2022-10-22T01:33:50;99756.13;;;26.29;43.97
53246;BME280;39569;51.090;-1.786;2022-10-22T01:36:19;99757.38;;;25.85;44.95
53246;BME280;39569;51.090;-1.786;2022-10-22T01:38:48;99757.59;;;27.70;40.85
53246;BME280;39569;51.090;-1.786;2022-10-22T01:41:16;99767.69;;;26.71;43.27
53246;BME280;39569;51.090;-1.786;2022-10-22T01:43:43;99774.72;;;26.45;43.34
53246;BME280;39569;51.090;-1.786;2022-10-22T01:46:12;99778.00;;;27.42;41.39
53246;BME280;39569;51.090;-1.786;2022-10-22T01:48:48;99779.75;;;26.97;41.37
53246;BME280;39569;51.090;-1.786;2022-10-22T01:51:29;99778.84;;;26.75;41.95
53246;BME280;39569;51.090;-1.786;2022-10-22T01:54:02;99792.50;;;26.29;42.51
53246;BME280;39569;51.090;-1.786;2022-10-22T01:56:54;99795.91;;;26.40;41.65
53246;BME280;39569;51.090;-1.786;2022-10-22T01:59:31;99794.63;;;25.81;41.91
53246;BME280;39569;51.090;-1.786;2022-10-22T02:02:06;99801.53;;;25.42;42.11
53246;BME280;39569;51.090;-1.786;2022-10-22T02:04:41;99802.69;;;26.29;40.50
53246;BME280;39569;51.090;-1.786;2022-10-22T02:07:14;99805.25;;;26.52;40.34
53246;BME280;39569;51.090;-1.786;2022-10-22T02:09:42;99814.09;;;26.17;41.19
53246;BME280;39569;51.090;-1.786;2022-10-22T02:12:10;99821.50;;;25.37;42.54
53246;BME280;39569;51.090;-1.786;2022-10-22T02:14:40;99824.53;;;26.15;41.19
53246;BME280;39569;51.090;-1.786;2022-10-22T02:17:12;99825.69;;;26.27;40.16
53246;BME280;39569;51.090;-1.786;2022-10-22T02:19:45;99821.78;;;26.93;39.13
53246;BME280;39569;51.090;-1.786;2022-10-22T02:22:15;99830.50;;;26.81;39.47
53246;BME280;39569;51.090;-1.786;2022-10-22T02:24:42;99834.16;;;26.90;39.52
53246;BME280;39569;51.090;-1.786;2022-10-22T02:27:14;99836.03;;;26.63;40.66
53246;BME280;39569;51.090;-1.786;2022-10-22T02:29:49;99842.19;;;25.85;42.14
53246;BME280;39569;51.090;-1.786;2022-10-22T02:32:21;99843.94;;;25.15;42.78
53246;BME280;39569;51.090;-1.786;2022-10-22T02:34:52;99853.50;;;25.97;41.99
53246;BME280;39569;51.090;-1.786;2022-10-22T02:37:20;99848.41;;;27.06;40.17
53246;BME280;39569;51.090;-1.786;2022-10-22T02:39:48;99849.50;;;27.59;38.56
53246;BME280;39569;51.090;-1.786;2022-10-22T02:42:16;99850.59;;;26.77;39.28
53246;BME280;39569;51.090;-1.786;2022-10-22T02:44:43;99853.91;;;26.09;40.54
53246;BME280;39569;51.090;-1.786;2022-10-22T02:47:10;99853.97;;;26.23;39.78
53246;BME280;39569;51.090;-1.786;2022-10-22T02:49:38;99859.34;;;27.19;38.81
53246;BME280;39569;51.090;-1.786;2022-10-22T02:52:05;99849.88;;;27.80;37.17
53246;BME280;39569;51.090;-1.786;2022-10-22T02:54:32;99856.34;;;27.21;38.00
53246;BME280;39569;51.090;-1.786;2022-10-22T02:56:58;99858.72;;;26.17;40.74
53246;BME280;39569;51.090;-1.786;2022-10-22T02:59:25;99858.78;;;27.36;37.65
53246;BME280;39569;51.090;-1.786;2022-10-22T03:01:52;99863.97;;;26.46;40.19
53246;BME280;39569;51.090;-1.786;2022-10-22T03:04:18;99867.72;;;26.18;39.95
53246;BME280;39569;51.090;-1.786;2022-10-22T03:06:47;99861.00;;;26.61;39.94
53246;BME280;39569;51.090;-1.786;2022-10-22T03:09:14;99868.06;;;26.62;39.23
53246;BME280;39569;51.090;-1.786;2022-10-22T03:11:40;99875.69;;;26.97;37.94
53246;BME280;39569;51.090;-1.786;2022-10-22T03:14:07;99875.81;;;26.60;38.29
53246;BME280;39569;51.090;-1.786;2022-10-22T03:16:34;99876.44;;;27.30;37.82
53246;BME280;39569;51.090;-1.786;2022-10-22T03:19:01;99881.94;;;27.57;36.52
53246;BME280;39569;51.090;-1.786;2022-10-22T03:21:32;99879.16;;;27.03;37.96
53246;BME280;39569;51.090;-1.786;2022-10-22T03:24:04;99892.84;;;26.57;38.02
53246;BME280;39569;51.090;-1.786;2022-10-22T03:26:33;99891.59;;;26.50;39.24
53246;BME280;39569;51.090;-1.786;2022-10-22T03:29:00;99900.00;;;27.17;37.22
53246;BME280;39569;51.090;-1.786;2022-10-22T03:31:27;99895.03;;;26.74;38.76
53246;BME280;39569;51.090;-1.786;2022-10-22T03:33:54;99900.22;;;27.35;36.82
53246;BME280;39569;51.090;-1.786;2022-10-22T03:36:21;99909.25;;;26.76;38.15
53246;BME280;39569;51.090;-1.786;2022-10-22T03:38:48;99908.28;;;26.85;38.45
53246;BME280;39569;51.090;-1.786;2022-10-22T03:41:17;99901.97;;;26.53;39.50
53246;BME280;39569;51.090;-1.786;2022-10-22T03:43:44;99912.94;;;26.53;39.37
53246;BME280;39569;51.090;-1.786;2022-10-22T03:46:14;99913.16;;;27.34;37.06
53246;BME280;39569;51.090;-1.786;2022-10-22T03:48:40;99927.09;;;26.73;38.48
53246;BME280;39569;51.090;-1.786;2022-10-22T03:51:07;99921.31;;;27.07;37.96
53246;BME280;39569;51.090;-1.786;2022-10-22T03:53:34;99924.25;;;27.10;37.74
53246;BME280;39569;51.090;-1.786;2022-10-22T03:56:01;99925.44;;;26.91;37.50
53246;BME280;39569;51.090;-1.786;2022-10-22T03:58:30;99927.66;;;28.02;36.02
53246;BME280;39569;51.090;-1.786;2022-10-22T04:00:56;99929.00;;;26.91;37.18
53246;BME280;39569;51.090;-1.786;2022-10-22T04:03:29;99934.53;;;25.98;39.90
53246;BME280;39569;51.090;-1.786;2022-10-22T04:06:00;99939.00;;;25.47;40.95
53246;BME280;39569;51.090;-1.786;2022-10-22T04:08:27;99934.66;;;26.12;38.85
53246;BME280;39569;51.090;-1.786;2022-10-22T04:10:53;99940.56;;;25.53;40.70
53246;BME280;39569;51.090;-1.786;2022-10-22T04:13:20;99938.44;;;25.92;39.15
53246;BME280;39569;51.090;-1.786;2022-10-22T04:15:48;99944.94;;;25.96;39.87
53246;BME280;39569;51.090;-1.786;2022-10-22T04:18:16;99948.81;;;26.33;38.34
53246;BME280;39569;51.090;-1.786;2022-10-22T04:20:43;99962.03;;;26.49;38.22
53246;BME280;39569;51.090;-1.786;2022-10-22T04:23:10;99963.28;;;25.96;39.01
53246;BME280;39569;51.090;-1.786;2022-10-22T04:25:37;99952.53;;;26.60;37.40
53246;BME280;39569;51.090;-1.786;2022-10-22T04:28:05;99956.84;;;26.98;36.98
53246;BME280;39569;51.090;-1.786;2022-10-22T04:30:32;99970.16;;;26.36;37.74
53246;BME280;39569;51.090;-1.786;2022-10-22T04:33:00;99967.34;;;27.10;36.71
53246;BME280;39569;51.090;-1.786;2022-10-22T04:35:27;99973.94;;;26.77;37.47
53246;BME280;39569;51.090;-1.786;2022-10-22T04:37:54;99966.59;;;25.74;39.17
53246;BME280;39569;51.090;-1.786;2022-10-22T04:40:21;99972.06;;;26.35;37.98
53246;BME280;39569;51.090;-1.786;2022-10-22T04:42:48;99980.91;;;26.51;36.95
53246;BME280;39569;51.090;-1.786;2022-10-22T04:45:15;99986.53;;;25.98;38.24
53246;BME280;39569;51.090;-1.786;2022-10-22T04:47:41;99982.88;;;26.64;36.91
53246;BME280;39569;51.090;-1.786;2022-10-22T04:50:09;99986.31;;;25.71;39.14
53246;BME280;39569;51.090;-1.786;2022-10-22T04:52:36;99982.78;;;25.71;39.54
53246;BME280;39569;51.090;-1.786;2022-10-22T04:55:04;99988.59;;;26.49;37.68
53246;BME280;39569;51.090;-1.786;2022-10-22T04:57:31;99983.84;;;26.17;38.11
53246;BME280;39569;51.090;-1.786;2022-10-22T04:59:58;99991.03;;;25.66;38.86
53246;BME280;39569;51.090;-1.786;2022-10-22T05:02:24;99998.19;;;25.62;38.50
53246;BME280;39569;51.090;-1.786;2022-10-22T05:04:51;99995.53;;;26.22;38.15
53246;BME280;39569;51.090;-1.786;2022-10-22T05:07:19;100007.22;;;25.86;38.40
53246;BME280;39569;51.090;-1.786;2022-10-22T05:09:48;100005.22;;;26.15;37.87
53246;BME280;39569;51.090;-1.786;2022-10-22T05:12:14;100008.28;;;26.51;37.52
53246;BME280;39569;51.090;-1.786;2022-10-22T05:14:41;100017.22;;;25.95;37.83
53246;BME280;39569;51.090;-1.786;2022-10-22T05:17:08;100010.78;;;26.10;38.07
53246;BME280;39569;51.090;-1.786;2022-10-22T05:19:36;100021.16;;;26.32;37.53
53246;BME280;39569;51.090;-1.786;2022-10-22T05:22:03;100026.16;;;26.06;38.50
53246;BME280;39569;51.090;-1.786;2022-10-22T05:24:33;100025.31;;;26.48;37.21
53246;BME280;39569;51.090;-1.786;2022-10-22T05:27:01;100035.81;;;26.41;37.12
53246;BME280;39569;51.090;-1.786;2022-10-22T05:29:28;100042.41;;;26.40;36.32
53246;BME280;39569;51.090;-1.786;2022-10-22T05:31:55;100032.22;;;26.64;36.35
53246;BME280;39569;51.090;-1.786;2022-10-22T05:34:22;100047.13;;;26.76;36.67
53246;BME280;39569;51.090;-1.786;2022-10-22T05:36:49;100053.38;;;26.16;36.44
53246;BME280;39569;51.090;-1.786;2022-10-22T05:39:16;100052.00;;;25.43;37.96
53246;BME280;39569;51.090;-1.786;2022-10-22T05:41:44;100051.59;;;26.67;36.00
53246;BME280;39569;51.090;-1.786;2022-10-22T05:44:11;100058.69;;;26.31;36.26
53246;BME280;39569;51.090;-1.786;2022-10-22T05:46:38;100064.03;;;25.70;37.02
53246;BME280;39569;51.090;-1.786;2022-10-22T05:49:06;100063.25;;;26.17;36.53
53246;BME280;39569;51.090;-1.786;2022-10-22T05:51:34;100072.00;;;25.90;37.06
53246;BME280;39569;51.090;-1.786;2022-10-22T05:54:04;100068.78;;;26.12;37.11
53246;BME280;39569;51.090;-1.786;2022-10-22T05:56:32;100078.03;;;26.16;37.03
53246;BME280;39569;51.090;-1.786;2022-10-22T05:59:01;100076.38;;;25.39;38.57
53246;BME280;39569;51.090;-1.786;2022-10-22T06:01:29;100077.06;;;26.31;37.39
53246;BME280;39569;51.090;-1.786;2022-10-22T06:03:58;100075.41;;;26.72;36.35
53246;BME280;39569;51.090;-1.786;2022-10-22T06:06:27;100076.53;;;26.71;35.52
53246;BME280;39569;51.090;-1.786;2022-10-22T06:08:59;100073.81;;;27.03;35.81
53246;BME280;39569;51.090;-1.786;2022-10-22T06:11:27;100078.06;;;26.95;35.29
53246;BME280;39569;51.090;-1.786;2022-10-22T06:13:53;100086.13;;;26.87;34.88
53246;BME280;39569;51.090;-1.786;2022-10-22T06:16:22;100089.84;;;26.35;35.89
53246;BME280;39569;51.090;-1.786;2022-10-22T06:18:48;100103.34;;;26.03;36.28
53246;BME280;39569;51.090;-1.786;2022-10-22T06:21:15;100102.56;;;25.11;38.13
53246;BME280;39569;51.090;-1.786;2022-10-22T06:23:42;100108.50;;;25.81;37.12
53246;BME280;39569;51.090;-1.786;2022-10-22T06:26:09;100108.34;;;25.44;37.42
53246;BME280;39569;51.090;-1.786;2022-10-22T06:28:36;100107.75;;;25.47;36.26
53246;BME280;39569;51.090;-1.786;2022-10-22T06:31:04;100113.78;;;25.10;38.45
53246;BME280;39569;51.090;-1.786;2022-10-22T06:33:33;100121.69;;;25.50;36.71
53246;BME280;39569;51.090;-1.786;2022-10-22T06:36:07;100124.53;;;24.96;37.93
53246;BME280;39569;51.090;-1.786;2022-10-22T06:38:34;100124.22;;;24.98;37.32
53246;BME280;39569;51.090;-1.786;2022-10-22T06:41:02;100125.41;;;25.25;37.36
53246;BME280;39569;51.090;-1.786;2022-10-22T06:43:29;100126.72;;;24.94;37.54
53246;BME280;39569;51.090;-1.786;2022-10-22T06:45:58;100131.59;;;25.02;37.40
53246;BME280;39569;51.090;-1.786;2022-10-22T06:48:25;100132.44;;;24.98;37.08
53246;BME280;39569;51.090;-1.786;2022-10-22T06:50:53;100132.97;;;25.00;37.35
53246;BME280;39569;51.090;-1.786;2022-10-22T06:53:20;100139.84;;;24.92;37.23
53246;BME280;39569;51.090;-1.786;2022-10-22T06:55:47;100140.88;;;25.01;37.24
53246;BME280;39569;51.090;-1.786;2022-10-22T06:58:13;100148.66;;;24.79;36.97
53246;BME280;39569;51.090;-1.786;2022-10-22T07:00:40;100149.31;;;24.56;38.10
53246;BME280;39569;51.090;-1.786;2022-10-22T07:03:09;100155.09;;;25.03;37.25
53246;BME280;39569;51.090;-1.786;2022-10-22T07:05:37;100161.53;;;24.74;37.45
53246;BME280;39569;51.090;-1.786;2022-10-22T07:08:05;100171.25;;;24.26;38.69
53246;BME280;39569;51.090;-1.786;2022-10-22T07:10:33;100170.97;;;24.32;38.54
53246;BME280;39569;51.090;-1.786;2022-10-22T07:12:59;100177.31;;;23.63;39.71
53246;BME280;39569;51.090;-1.786;2022-10-22T07:15:26;100175.88;;;24.25;38.53
53246;BME280;39569;51.090;-1.786;2022-10-22T07:17:53;100185.78;;;24.85;37.27
53246;BME280;39569;51.090;-1.786;2022-10-22T07:20:20;100180.66;;;24.79;38.41
53246;BME280;39569;51.090;-1.786;2022-10-22T07:22:46;100186.38;;;24.82;37.38
53246;BME280;39569;51.090;-1.786;2022-10-22T07:25:15;100189.97;;;25.16;36.91
53246;BME280;39569;51.090;-1.786;2022-10-22T07:27:41;100191.91;;;24.57;38.30
53246;BME280;39569;51.090;-1.786;2022-10-22T07:30:09;100193.72;;;24.87;37.92
53246;BME280;39569;51.090;-1.786;2022-10-22T07:32:36;100199.78;;;24.79;38.05
53246;BME280;39569;51.090;-1.786;2022-10-22T07:35:03;100198.81;;;25.03;37.71
53246;BME280;39569;51.090;-1.786;2022-10-22T07:37:30;100202.13;;;25.49;36.94
53246;BME280;39569;51.090;-1.786;2022-10-22T07:39:56;100196.94;;;25.43;37.66
53246;BME280;39569;51.090;-1.786;2022-10-22T07:42:25;100209.94;;;25.17;38.42
53246;BME280;39569;51.090;-1.786;2022-10-22T07:44:51;100215.88;;;25.29;38.08
53246;BME280;39569;51.090;-1.786;2022-10-22T07:47:18;100215.50;;;26.65;36.03
53246;BME280;39569;51.090;-1.786;2022-10-22T07:49:45;100221.09;;;27.02;35.64
53246;BME280;39569;51.090;-1.786;2022-10-22T07:52:11;100219.78;;;28.06;34.16
53246;BME280;39569;51.090;-1.786;2022-10-22T07:54:38;100221.47;;;27.70;34.95
53246;BME280;39569;51.090;-1.786;2022-10-22T07:57:05;100236.75;;;28.08;33.52
53246;BME280;39569;51.090;-1.786;2022-10-22T07:59:33;100229.47;;;29.26;32.97
53246;BME280;39569;51.090;-1.786;2022-10-22T08:02:00;100239.91;;;29.02;32.91
53246;BME280;39569;51.090;-1.786;2022-10-22T08:04:27;100229.19;;;29.50;33.20
53246;BME280;39569;51.090;-1.786;2022-10-22T08:06:53;100233.69;;;30.65;31.61
53246;BME280;39569;51.090;-1.786;2022-10-22T08:09:20;100240.88;;;30.44;31.25
53246;BME280;39569;51.090;-1.786;2022-10-22T08:11:47;100242.53;;;30.23;30.77
53246;BME280;39569;51.090;-1.786;2022-10-22T08:14:14;100246.53;;;30.78;30.94
53246;BME280;39569;51.090;-1.786;2022-10-22T08:16:42;100247.06;;;30.19;31.37
53246;BME280;39569;51.090;-1.786;2022-10-22T08:19:09;100247.59;;;29.41;32.98
53246;BME280;39569;51.090;-1.786;2022-10-22T08:21:35;100248.31;;;29.90;32.71
53246;BME280;39569;51.090;-1.786;2022-10-22T08:24:02;100255.19;;;30.24;31.76
53246;BME280;39569;51.090;-1.786;2022-10-22T08:26:29;100264.03;;;29.05;33.66
53246;BME280;39569;51.090;-1.786;2022-10-22T08:28:56;100257.09;;;29.92;32.88
53246;BME280;39569;51.090;-1.786;2022-10-22T08:31:23;100262.91;;;30.35;31.62
53246;BME280;39569;51.090;-1.786;2022-10-22T08:33:51;100261.28;;;30.34;31.47
53246;BME280;39569;51.090;-1.786;2022-10-22T08:36:18;100267.38;;;30.53;31.59
53246;BME280;39569;51.090;-1.786;2022-10-22T08:38:44;100262.38;;;30.94;31.28
53246;BME280;39569;51.090;-1.786;2022-10-22T08:41:13;100272.28;;;30.12;32.29
53246;BME280;39569;51.090;-1.786;2022-10-22T08:44:01;100272.50;;;29.93;32.13
53246;BME280;39569;51.090;-1.786;2022-10-22T08:46:42;100279.81;;;29.98;32.89
53246;BME280;39569;51.090;-1.786;2022-10-22T08:49:18;100278.44;;;30.31;30.97
53246;BME280;39569;51.090;-1.786;2022-10-22T08:51:46;100281.53;;;31.00;30.02
53246;BME280;39569;51.090;-1.786;2022-10-22T08:54:21;100284.06;;;30.48;32.75
53246;BME280;39569;51.090;-1.786;2022-10-22T08:56:53;100290.50;;;31.31;30.33
53246;BME280;39569;51.090;-1.786;2022-10-22T08:59:27;100286.28;;;32.53;29.93
53246;BME280;39569;51.090;-1.786;2022-10-22T09:01:54;100288.91;;;32.41;28.56
53246;BME280;39569;51.090;-1.786;2022-10-22T09:04:26;100299.53;;;31.70;30.09
53246;BME280;39569;51.090;-1.786;2022-10-22T09:06:56;100283.47;;;31.98;30.52
53246;BME280;39569;51.090;-1.786;2022-10-22T09:09:26;100288.41;;;33.52;27.30
53246;BME280;39569;51.090;-1.786;2022-10-22T09:11:57;100280.75;;;33.90;27.78
53246;BME280;39569;51.090;-1.786;2022-10-22T09:14:25;100293.38;;;31.91;29.90
53246;BME280;39569;51.090;-1.786;2022-10-22T09:17:11;100292.66;;;33.20;29.31
53246;BME280;39569;51.090;-1.786;2022-10-22T09:19:46;100295.13;;;32.12;30.40
53246;BME280;39569;51.090;-1.786;2022-10-22T09:22:21;100300.47;;;33.97;27.28
53246;BME280;39569;51.090;-1.786;2022-10-22T09:24:55;100305.97;;;31.32;31.56
53246;BME280;39569;51.090;-1.786;2022-10-22T09:27:27;100291.88;;;33.40;29.64
53246;BME280;39569;51.090;-1.786;2022-10-22T09:29:54;100305.63;;;31.33;31.62
53246;BME280;39569;51.090;-1.786;2022-10-22T09:32:21;100304.34;;;30.52;32.56
53246;BME280;39569;51.090;-1.786;2022-10-22T09:34:55;100307.44;;;32.40;31.88
53246;BME280;39569;51.090;-1.786;2022-10-22T09:37:25;100305.78;;;30.80;32.15
53246;BME280;39569;51.090;-1.786;2022-10-22T09:39:55;100310.34;;;31.33;32.28
53246;BME280;39569;51.090;-1.786;2022-10-22T09:42:23;100310.88;;;30.56;32.91
53246;BME280;39569;51.090;-1.786;2022-10-22T09:44:52;100318.00;;;30.27;33.61
53246;BME280;39569;51.090;-1.786;2022-10-22T09:47:33;100313.66;;;32.37;30.33
53246;BME280;39569;51.090;-1.786;2022-10-22T09:50:09;100317.91;;;32.43;31.45
53246;BME280;39569;51.090;-1.786;2022-10-22T09:52:43;100317.63;;;31.20;32.77
53246;BME280;39569;51.090;-1.786;2022-10-22T09:55:12;100321.16;;;31.60;32.45
53246;BME280;39569;51.090;-1.786;2022-10-22T09:57:40;100312.38;;;32.81;30.52
53246;BME280;39569;51.090;-1.786;2022-10-22T10:00:08;100316.56;;;32.58;30.90
53246;BME280;39569;51.090;-1.786;2022-10-22T10:02:38;100320.25;;;32.70;30.88
53246;BME280;39569;51.090;-1.786;2022-10-22T10:05:11;100318.13;;;31.31;33.38
53246;BME280;39569;51.090;-1.786;2022-10-22T10:07:42;100317.94;;;32.01;32.45
53246;BME280;39569;51.090;-1.786;2022-10-22T10:10:32;100316.44;;;31.77;32.29
53246;BME280;39569;51.090;-1.786;2022-10-22T10:13:16;100323.47;;;29.82;35.45
53246;BME280;39569;51.090;-1.786;2022-10-22T10:15:53;100315.59;;;30.12;36.43
53246;BME280;39569;51.090;-1.786;2022-10-22T10:18:29;100325.09;;;31.93;32.89
53246;BME280;39569;51.090;-1.786;2022-10-22T10:21:04;100321.28;;;29.93;36.38
53246;BME280;39569;51.090;-1.786;2022-10-22T10:23:40;100318.25;;;30.03;35.66
53246;BME280;39569;51.090;-1.786;2022-10-22T10:26:11;100315.63;;;31.77;33.19
53246;BME280;39569;51.090;-1.786;2022-10-22T10:28:54;100316.28;;;29.95;35.54
53246;BME280;39569;51.090;-1.786;2022-10-22T10:31:35;100324.56;;;31.01;34.28
53246;BME280;39569;51.090;-1.786;2022-10-22T10:34:11;100321.25;;;30.59;34.66
53246;BME280;39569;51.090;-1.786;2022-10-22T10:36:51;100337.13;;;31.97;32.45
53246;BME280;39569;51.090;-1.786;2022-10-22T10:39:24;100336.00;;;30.33;35.67
53246;BME280;39569;51.090;-1.786;2022-10-22T10:42:00;100336.31;;;30.31;36.52
53246;BME280;39569;51.090;-1.786;2022-10-22T10:44:47;100333.94;;;29.45;35.77
53246;BME280;39569;51.090;-1.786;2022-10-22T10:47:31;100330.16;;;30.56;34.88
53246;BME280;39569;51.090;-1.786;2022-10-22T10:50:16;100337.97;;;30.63;35.01
53246;BME280;39569;51.090;-1.786;2022-10-22T10:52:54;100333.66;;;30.79;34.86
53246;BME280;39569;51.090;-1.786;2022-10-22T10:55:29;100329.75;;;32.90;31.33
53246;BME280;39569;51.090;-1.786;2022-10-22T10:58:04;100325.72;;;34.16;29.29
53246;BME280;39569;51.090;-1.786;2022-10-22T11:00:42;100325.34;;;30.62;34.81
53246;BME280;39569;51.090;-1.786;2022-10-22T11:03:31;100334.91;;;30.20;34.86
53246;BME280;39569;51.090;-1.786;2022-10-22T11:06:02;100332.34;;;30.24;35.27
53246;BME280;39569;51.090;-1.786;2022-10-22T11:08:33;100319.50;;;32.91;31.30
53246;BME280;39569;51.090;-1.786;2022-10-22T11:11:04;100316.75;;;32.91;30.71
53246;BME280;39569;51.090;-1.786;2022-10-22T11:13:35;100320.59;;;32.69;31.10
53246;BME280;39569;51.090;-1.786;2022-10-22T11:16:09;100323.06;;;31.42;34.32
53246;BME280;39569;51.090;-1.786;2022-10-22T11:18:41;100307.53;;;32.06;31.84
53246;BME280;39569;51.090;-1.786;2022-10-22T11:21:15;100306.59;;;33.03;31.72
53246;BME280;39569;51.090;-1.786;2022-10-22T11:23:49;100312.75;;;33.09;30.68
53246;BME280;39569;51.090;-1.786;2022-10-22T11:26:24;100311.69;;;32.93;31.02
53246;BME280;39569;51.090;-1.786;2022-10-22T11:28:53;100308.78;;;30.92;33.97
53246;BME280;39569;51.090;-1.786;2022-10-22T11:31:22;100319.66;;;31.62;32.94
53246;BME280;39569;51.090;-1.786;2022-10-22T11:33:53;100317.44;;;32.07;31.46
53246;BME280;39569;51.090;-1.786;2022-10-22T11:36:21;100314.81;;;30.42;35.19
53246;BME280;39569;51.090;-1.786;2022-10-22T11:38:51;100304.06;;;30.62;35.06
53246;BME280;39569;51.090;-1.786;2022-10-22T11:41:21;100318.88;;;29.64;36.15
53246;BME280;39569;51.090;-1.786;2022-10-22T11:43:57;100317.41;;;29.45;36.30
53246;BME280;39569;51.090;-1.786;2022-10-22T11:46:30;100322.75;;;29.77;35.84
53246;BME280;39569;51.090;-1.786;2022-10-22T11:49:02;100323.69;;;29.59;36.66
53246;BME280;39569;51.090;-1.786;2022-10-22T11:51:35;100323.94;;;29.35;37.61
53246;BME280;39569;51.090;-1.786;2022-10-22T11:54:28;100317.72;;;29.30;36.52
53246;BME280;39569;51.090;-1.786;2022-10-22T11:56:58;100326.88;;;28.71;37.85
53246;BME280;39569;51.090;-1.786;2022-10-22T11:59:47;100335.13;;;28.71;38.38
53246;BME280;39569;51.090;-1.786;2022-10-22T12:02:30;100331.78;;;28.42;38.85
53246;BME280;39569;51.090;-1.786;2022-10-22T12:08:22;100335.88;;;29.31;37.76
53246;BME280;39569;51.090;-1.786;2022-10-22T12:11:03;100340.91;;;28.05;40.97
53246;BME280;39569;51.090;-1.786;2022-10-22T12:13:32;100332.28;;;29.44;38.18
53246;BME280;39569;51.090;-1.786;2022-10-22T12:16:02;100331.44;;;28.75;40.34
53246;BME280;39569;51.090;-1.786;2022-10-22T12:18:34;100321.69;;;30.09;37.26
53246;BME280;39569;51.090;-1.786;2022-10-22T12:21:04;100318.03;;;31.36;35.37
53246;BME280;39569;51.090;-1.786;2022-10-22T12:23:33;100314.81;;;31.94;33.29
53246;BME280;39569;51.090;-1.786;2022-10-22T12:26:04;100314.16;;;31.45;34.49
53246;BME280;39569;51.090;-1.786;2022-10-22T12:28:38;100314.00;;;31.76;35.25
53246;BME280;39569;51.090;-1.786;2022-10-22T12:31:12;100316.22;;;30.53;35.71
53246;BME280;39569;51.090;-1.786;2022-10-22T12:33:39;100309.53;;;30.84;35.76
53246;BME280;39569;51.090;-1.786;2022-10-22T12:36:14;100312.25;;;30.23;36.58
53246;BME280;39569;51.090;-1.786;2022-10-22T12:38:44;100305.75;;;31.93;34.87
53246;BME280;39569;51.090;-1.786;2022-10-22T12:41:14;100305.84;;;29.92;37.50
53246;BME280;39569;51.090;-1.786;2022-10-22T12:43:40;100313.38;;;30.00;37.14
53246;BME280;39569;51.090;-1.786;2022-10-22T12:46:10;100313.19;;;31.75;34.81
53246;BME280;39569;51.090;-1.786;2022-10-22T12:48:41;100306.38;;;32.16;33.65
53246;BME280;39569;51.090;-1.786;2022-10-22T12:51:14;100297.75;;;30.62;35.65
53246;BME280;39569;51.090;-1.786;2022-10-22T12:53:44;100303.78;;;29.40;38.78
53246;BME280;39569;51.090;-1.786;2022-10-22T12:56:15;100304.47;;;30.03;37.04
53246;BME280;39569;51.090;-1.786;2022-10-22T12:58:47;100302.66;;;29.76;38.14
53246;BME280;39569;51.090;-1.786;2022-10-22T13:01:16;100298.09;;;30.38;37.53